sensor_id;sensor_type;location;lat;lon;timestamp;temperature;humidity
52799;DHT22;38667;42.872;74.622;2023-04-01T00:00:09;6.80;64.80
52799;DHT22;38667;42.872;74.622;2023-04-01T00:02:35;6.80;65.10
52799;DHT22;38667;42.872;74.622;2023-04-01T00:05:04;6.90;65.60
52799;DHT22;38667;42.872;74.622;2023-04-01T00:07:30;6.80;65.30
52799;DHT22;38667;42.872;74.622;2023-04-01T00:09:56;6.80;65.50
52799;DHT22;38667;42.872;74.622;2023-04-01T00:12:23;6.80;66.10
52799;DHT22;38667;42.872;74.622;2023-04-01T00:14:49;6.80;66.00
52799;DHT22;38667;42.872;74.622;2023-04-01T00:17:15;6.80;66.20
52799;DHT22;38667;42.872;74.622;2023-04-01T00:19:42;6.70;66.80
52799;DHT22;38667;42.872;74.622;2023-04-01T00:22:10;6.70;66.80
52799;DHT22;38667;42.872;74.622;2023-04-01T00:24:36;6.70;67.50
52799;DHT22;38667;42.872;74.622;2023-04-01T00:27:02;6.70;67.20
52799;DHT22;38667;42.872;74.622;2023-04-01T00:29:29;6.60;67.40
52799;DHT22;38667;42.872;74.622;2023-04-01T00:31:56;6.60;67.50
52799;DHT22;38667;42.872;74.622;2023-04-01T00:34:22;6.60;67.80
52799;DHT22;38667;42.872;74.622;2023-04-01T00:36:48;6.60;68.20
52799;DHT22;38667;42.872;74.622;2023-04-01T00:39:16;6.60;68.10
52799;DHT22;38667;42.872;74.622;2023-04-01T00:41:43;6.60;67.70
52799;DHT22;38667;42.872;74.622;2023-04-01T00:44:16;6.60;68.10
52799;DHT22;38667;42.872;74.622;2023-04-01T00:46:42;6.60;69.30
52799;DHT22;38667;42.872;74.622;2023-04-01T00:49:09;6.50;69.00
52799;DHT22;38667;42.872;74.622;2023-04-01T00:51:37;6.50;69.10
52799;DHT22;38667;42.872;74.622;2023-04-01T00:54:05;6.60;69.30
52799;DHT22;38667;42.872;74.622;2023-04-01T00:56:35;6.60;69.50
52799;DHT22;38667;42.872;74.622;2023-04-01T00:59:05;6.70;69.10
52799;DHT22;38667;42.872;74.622;2023-04-01T01:01:32;6.80;68.60
52799;DHT22;38667;42.872;74.622;2023-04-01T01:03:59;6.80;68.50
52799;DHT22;38667;42.872;74.622;2023-04-01T01:06:34;6.80;68.70
52799;DHT22;38667;42.872;74.622;2023-04-01T01:09:10;6.80;68.90
52799;DHT22;38667;42.872;74.622;2023-04-01T01:11:43;6.80;69.50
52799;DHT22;38667;42.872;74.622;2023-04-01T01:14:24;6.80;69.50
52799;DHT22;38667;42.872;74.622;2023-04-01T01:16:58;6.80;69.50
52799;DHT22;38667;42.872;74.622;2023-04-01T01:22:42;6.80;70.50
52799;DHT22;38667;42.872;74.622;2023-04-01T01:25:18;6.80;70.20
52799;DHT22;38667;42.872;74.622;2023-04-01T01:27:56;6.80;70.60
52799;DHT22;38667;42.872;74.622;2023-04-01T01:30:42;6.80;70.80
52799;DHT22;38667;42.872;74.622;2023-04-01T01:33:27;6.80;70.70
52799;DHT22;38667;42.872;74.622;2023-04-01T01:36:02;6.90;70.50
52799;DHT22;38667;42.872;74.622;2023-04-01T01:38:33;6.80;69.30
52799;DHT22;38667;42.872;74.622;2023-04-01T01:41:01;6.80;70.20
52799;DHT22;38667;42.872;74.622;2023-04-01T01:43:31;6.90;69.20
52799;DHT22;38667;42.872;74.622;2023-04-01T01:46:00;6.90;68.70
52799;DHT22;38667;42.872;74.622;2023-04-01T01:48:29;6.90;68.30
52799;DHT22;38667;42.872;74.622;2023-04-01T01:50:56;7.00;68.40
52799;DHT22;38667;42.872;74.622;2023-04-01T01:53:25;7.00;68.30
52799;DHT22;38667;42.872;74.622;2023-04-01T01:55:51;7.10;69.00
52799;DHT22;38667;42.872;74.622;2023-04-01T01:58:20;7.10;68.20
52799;DHT22;38667;42.872;74.622;2023-04-01T02:00:50;7.20;67.80
52799;DHT22;38667;42.872;74.622;2023-04-01T02:03:18;7.30;67.60
52799;DHT22;38667;42.872;74.622;2023-04-01T02:05:46;7.40;67.40
52799;DHT22;38667;42.872;74.622;2023-04-01T02:08:14;7.40;67.10
52799;DHT22;38667;42.872;74.622;2023-04-01T02:10:47;7.50;65.70
52799;DHT22;38667;42.872;74.622;2023-04-01T02:13:18;7.60;65.60
52799;DHT22;38667;42.872;74.622;2023-04-01T02:15:48;7.70;65.90
52799;DHT22;38667;42.872;74.622;2023-04-01T02:18:16;7.80;64.80
52799;DHT22;38667;42.872;74.622;2023-04-01T02:20:46;7.90;64.10
52799;DHT22;38667;42.872;74.622;2023-04-01T02:23:14;8.00;63.70
52799;DHT22;38667;42.872;74.622;2023-04-01T02:25:43;8.00;63.10
52799;DHT22;38667;42.872;74.622;2023-04-01T02:28:11;8.10;62.90
52799;DHT22;38667;42.872;74.622;2023-04-01T02:30:40;8.20;62.10
52799;DHT22;38667;42.872;74.622;2023-04-01T02:33:07;8.30;61.70
52799;DHT22;38667;42.872;74.622;2023-04-01T02:35:35;8.40;60.50
52799;DHT22;38667;42.872;74.622;2023-04-01T02:38:02;8.50;61.30
52799;DHT22;38667;42.872;74.622;2023-04-01T02:40:29;8.50;59.10
52799;DHT22;38667;42.872;74.622;2023-04-01T02:42:57;8.60;58.70
52799;DHT22;38667;42.872;74.622;2023-04-01T02:45:23;8.70;58.40
52799;DHT22;38667;42.872;74.622;2023-04-01T02:47:50;8.70;57.20
52799;DHT22;38667;42.872;74.622;2023-04-01T02:50:17;8.70;56.60
52799;DHT22;38667;42.872;74.622;2023-04-01T02:52:43;8.80;55.50
52799;DHT22;38667;42.872;74.622;2023-04-01T02:55:09;8.90;56.00
52799;DHT22;38667;42.872;74.622;2023-04-01T02:57:36;8.90;54.50
52799;DHT22;38667;42.872;74.622;2023-04-01T03:00:04;9.00;54.60
52799;DHT22;38667;42.872;74.622;2023-04-01T03:02:31;8.90;54.70
52799;DHT22;38667;42.872;74.622;2023-04-01T03:04:57;9.00;55.20
52799;DHT22;38667;42.872;74.622;2023-04-01T03:07:24;9.10;54.50
52799;DHT22;38667;42.872;74.622;2023-04-01T03:09:50;9.20;53.20
52799;DHT22;38667;42.872;74.622;2023-04-01T03:12:16;9.30;53.00
52799;DHT22;38667;42.872;74.622;2023-04-01T03:14:43;9.40;52.60
52799;DHT22;38667;42.872;74.622;2023-04-01T03:17:10;9.50;52.50
52799;DHT22;38667;42.872;74.622;2023-04-01T03:19:37;9.60;52.50
52799;DHT22;38667;42.872;74.622;2023-04-01T03:22:03;9.70;52.60
52799;DHT22;38667;42.872;74.622;2023-04-01T03:24:29;9.80;51.00
52799;DHT22;38667;42.872;74.622;2023-04-01T03:26:55;9.80;51.00
52799;DHT22;38667;42.872;74.622;2023-04-01T03:29:22;9.80;51.40
52799;DHT22;38667;42.872;74.622;2023-04-01T03:31:48;9.90;51.60
52799;DHT22;38667;42.872;74.622;2023-04-01T03:34:16;9.90;51.00
52799;DHT22;38667;42.872;74.622;2023-04-01T03:36:42;10.00;49.50
52799;DHT22;38667;42.872;74.622;2023-04-01T03:39:09;10.00;48.70
52799;DHT22;38667;42.872;74.622;2023-04-01T03:41:36;10.00;48.00
52799;DHT22;38667;42.872;74.622;2023-04-01T03:44:03;10.10;48.00
52799;DHT22;38667;42.872;74.622;2023-04-01T03:46:29;10.10;47.10
52799;DHT22;38667;42.872;74.622;2023-04-01T03:48:55;10.10;46.70
52799;DHT22;38667;42.872;74.622;2023-04-01T03:51:23;10.10;46.40
52799;DHT22;38667;42.872;74.622;2023-04-01T03:53:49;10.20;45.90
52799;DHT22;38667;42.872;74.622;2023-04-01T03:56:16;10.40;45.00
52799;DHT22;38667;42.872;74.622;2023-04-01T03:58:42;10.40;43.10
52799;DHT22;38667;42.872;74.622;2023-04-01T04:01:16;10.40;43.90
52799;DHT22;38667;42.872;74.622;2023-04-01T04:03:43;10.60;44.50
52799;DHT22;38667;42.872;74.622;2023-04-01T04:06:11;10.70;44.10
52799;DHT22;38667;42.872;74.622;2023-04-01T04:08:40;10.70;42.40
52799;DHT22;38667;42.872;74.622;2023-04-01T04:11:07;10.80;41.80
52799;DHT22;38667;42.872;74.622;2023-04-01T04:13:33;10.90;42.10
52799;DHT22;38667;42.872;74.622;2023-04-01T04:15:59;10.90;42.80
52799;DHT22;38667;42.872;74.622;2023-04-01T04:18:26;10.80;41.40
52799;DHT22;38667;42.872;74.622;2023-04-01T04:20:52;10.80;41.70
52799;DHT22;38667;42.872;74.622;2023-04-01T04:23:18;10.90;41.00
52799;DHT22;38667;42.872;74.622;2023-04-01T04:25:56;11.00;40.50
52799;DHT22;38667;42.872;74.622;2023-04-01T04:28:22;11.00;40.60
52799;DHT22;38667;42.872;74.622;2023-04-01T04:30:49;11.30;39.20
52799;DHT22;38667;42.872;74.622;2023-04-01T04:33:15;11.40;37.10
52799;DHT22;38667;42.872;74.622;2023-04-01T04:35:42;11.50;39.00
52799;DHT22;38667;42.872;74.622;2023-04-01T04:38:08;11.60;38.40
52799;DHT22;38667;42.872;74.622;2023-04-01T04:40:36;11.80;37.90
52799;DHT22;38667;42.872;74.622;2023-04-01T04:43:04;11.90;38.00
52799;DHT22;38667;42.872;74.622;2023-04-01T04:45:30;12.00;37.40
52799;DHT22;38667;42.872;74.622;2023-04-01T04:47:57;12.00;37.70
52799;DHT22;38667;42.872;74.622;2023-04-01T04:50:24;12.10;37.00
52799;DHT22;38667;42.872;74.622;2023-04-01T04:52:50;12.20;36.60
52799;DHT22;38667;42.872;74.622;2023-04-01T04:55:17;12.20;35.90
52799;DHT22;38667;42.872;74.622;2023-04-01T04:57:43;12.20;35.60
52799;DHT22;38667;42.872;74.622;2023-04-01T05:00:12;12.30;35.30
52799;DHT22;38667;42.872;74.622;2023-04-01T05:02:38;12.40;35.50
52799;DHT22;38667;42.872;74.622;2023-04-01T05:05:06;12.40;34.40
52799;DHT22;38667;42.872;74.622;2023-04-01T05:07:33;12.50;34.40
52799;DHT22;38667;42.872;74.622;2023-04-01T05:09:59;12.80;34.30
52799;DHT22;38667;42.872;74.622;2023-04-01T05:12:26;12.90;33.30
52799;DHT22;38667;42.872;74.622;2023-04-01T05:14:52;13.10;33.10
52799;DHT22;38667;42.872;74.622;2023-04-01T05:17:20;13.30;32.80
52799;DHT22;38667;42.872;74.622;2023-04-01T05:19:46;13.30;32.50
52799;DHT22;38667;42.872;74.622;2023-04-01T05:22:13;13.50;31.70
52799;DHT22;38667;42.872;74.622;2023-04-01T05:24:39;13.50;31.30
52799;DHT22;38667;42.872;74.622;2023-04-01T05:27:05;13.70;32.00
52799;DHT22;38667;42.872;74.622;2023-04-01T05:29:32;13.80;31.70
52799;DHT22;38667;42.872;74.622;2023-04-01T05:31:59;13.90;31.00
52799;DHT22;38667;42.872;74.622;2023-04-01T05:34:27;13.90;31.80
52799;DHT22;38667;42.872;74.622;2023-04-01T05:36:53;14.10;30.90
52799;DHT22;38667;42.872;74.622;2023-04-01T05:39:19;14.30;30.80
52799;DHT22;38667;42.872;74.622;2023-04-01T05:41:46;14.30;29.50
52799;DHT22;38667;42.872;74.622;2023-04-01T05:44:12;14.50;30.80
52799;DHT22;38667;42.872;74.622;2023-04-01T05:46:38;14.60;29.90
52799;DHT22;38667;42.872;74.622;2023-04-01T05:49:05;14.80;29.90
52799;DHT22;38667;42.872;74.622;2023-04-01T05:51:33;15.00;26.50
52799;DHT22;38667;42.872;74.622;2023-04-01T05:53:59;15.20;26.70
52799;DHT22;38667;42.872;74.622;2023-04-01T05:56:26;15.70;26.80
52799;DHT22;38667;42.872;74.622;2023-04-01T05:58:53;16.30;25.40
52799;DHT22;38667;42.872;74.622;2023-04-01T06:01:20;17.10;24.10
52799;DHT22;38667;42.872;74.622;2023-04-01T06:03:46;17.50;23.90
52799;DHT22;38667;42.872;74.622;2023-04-01T06:06:15;17.40;22.90
52799;DHT22;38667;42.872;74.622;2023-04-01T06:08:43;17.70;23.20
52799;DHT22;38667;42.872;74.622;2023-04-01T06:11:20;18.10;22.70
52799;DHT22;38667;42.872;74.622;2023-04-01T06:14:07;18.60;21.30
52799;DHT22;38667;42.872;74.622;2023-04-01T06:16:44;18.80;21.90
52799;DHT22;38667;42.872;74.622;2023-04-01T06:19:28;19.40;20.40
52799;DHT22;38667;42.872;74.622;2023-04-01T06:22:15;19.80;19.10
52799;DHT22;38667;42.872;74.622;2023-04-01T06:25:04;19.70;18.90
52799;DHT22;38667;42.872;74.622;2023-04-01T06:27:51;19.30;19.60
52799;DHT22;38667;42.872;74.622;2023-04-01T06:30:35;19.20;19.60
52799;DHT22;38667;42.872;74.622;2023-04-01T06:33:21;19.10;16.70
52799;DHT22;38667;42.872;74.622;2023-04-01T06:36:03;18.90;15.90
52799;DHT22;38667;42.872;74.622;2023-04-01T06:38:48;18.80;17.10
52799;DHT22;38667;42.872;74.622;2023-04-01T06:41:45;19.10;16.30
52799;DHT22;38667;42.872;74.622;2023-04-01T06:44:20;19.20;15.20
52799;DHT22;38667;42.872;74.622;2023-04-01T06:46:57;19.30;16.10
52799;DHT22;38667;42.872;74.622;2023-04-01T06:49:35;19.40;15.80
52799;DHT22;38667;42.872;74.622;2023-04-01T06:52:14;19.60;15.00
52799;DHT22;38667;42.872;74.622;2023-04-01T06:54:46;19.60;15.00
52799;DHT22;38667;42.872;74.622;2023-04-01T06:57:22;20.10;15.00
52799;DHT22;38667;42.872;74.622;2023-04-01T06:59:51;20.30;14.50
52799;DHT22;38667;42.872;74.622;2023-04-01T07:02:25;20.40;15.30
52799;DHT22;38667;42.872;74.622;2023-04-01T07:04:56;20.80;14.90
52799;DHT22;38667;42.872;74.622;2023-04-01T07:07:30;21.20;15.00
52799;DHT22;38667;42.872;74.622;2023-04-01T07:09:58;20.60;14.80
52799;DHT22;38667;42.872;74.622;2023-04-01T07:12:36;20.60;14.90
52799;DHT22;38667;42.872;74.622;2023-04-01T07:15:11;21.20;14.30
52799;DHT22;38667;42.872;74.622;2023-04-01T07:17:41;21.70;14.70
52799;DHT22;38667;42.872;74.622;2023-04-01T07:20:15;21.60;14.10
52799;DHT22;38667;42.872;74.622;2023-04-01T07:22:45;21.30;13.70
52799;DHT22;38667;42.872;74.622;2023-04-01T07:25:13;21.10;14.40
52799;DHT22;38667;42.872;74.622;2023-04-01T07:27:42;21.40;13.90
52799;DHT22;38667;42.872;74.622;2023-04-01T07:30:15;21.70;12.80
52799;DHT22;38667;42.872;74.622;2023-04-01T07:32:44;22.60;14.10
52799;DHT22;38667;42.872;74.622;2023-04-01T07:35:20;23.60;12.40
52799;DHT22;38667;42.872;74.622;2023-04-01T07:38:07;23.10;13.90
52799;DHT22;38667;42.872;74.622;2023-04-01T07:40:40;23.60;14.00
52799;DHT22;38667;42.872;74.622;2023-04-01T07:43:31;24.30;12.10
52799;DHT22;38667;42.872;74.622;2023-04-01T07:46:09;24.30;13.40
52799;DHT22;38667;42.872;74.622;2023-04-01T07:48:44;23.50;14.00
52799;DHT22;38667;42.872;74.622;2023-04-01T07:51:18;23.30;12.80
52799;DHT22;38667;42.872;74.622;2023-04-01T07:53:49;23.10;12.60
52799;DHT22;38667;42.872;74.622;2023-04-01T07:56:21;22.50;12.90
52799;DHT22;38667;42.872;74.622;2023-04-01T07:58:58;21.70;13.40
52799;DHT22;38667;42.872;74.622;2023-04-01T08:01:32;21.30;13.90
52799;DHT22;38667;42.872;74.622;2023-04-01T08:06:55;22.10;13.20
52799;DHT22;38667;42.872;74.622;2023-04-01T08:09:29;22.80;12.60
52799;DHT22;38667;42.872;74.622;2023-04-01T08:12:04;23.70;13.10
52799;DHT22;38667;42.872;74.622;2023-04-01T08:14:45;23.60;13.70
52799;DHT22;38667;42.872;74.622;2023-04-01T08:17:18;23.20;13.40
52799;DHT22;38667;42.872;74.622;2023-04-01T08:19:56;23.20;12.50
52799;DHT22;38667;42.872;74.622;2023-04-01T08:22:27;22.80;13.30
52799;DHT22;38667;42.872;74.622;2023-04-01T08:24:57;23.00;13.30
52799;DHT22;38667;42.872;74.622;2023-04-01T08:27:28;22.40;13.50
52799;DHT22;38667;42.872;74.622;2023-04-01T08:30:02;22.00;13.30
52799;DHT22;38667;42.872;74.622;2023-04-01T08:32:34;21.80;13.90
52799;DHT22;38667;42.872;74.622;2023-04-01T08:35:08;21.70;14.30
52799;DHT22;38667;42.872;74.622;2023-04-01T08:37:38;22.20;13.10
52799;DHT22;38667;42.872;74.622;2023-04-01T08:40:27;23.30;13.40
52799;DHT22;38667;42.872;74.622;2023-04-01T08:43:06;24.80;13.00
52799;DHT22;38667;42.872;74.622;2023-04-01T08:45:48;26.00;11.30
52799;DHT22;38667;42.872;74.622;2023-04-01T08:57:37;26.10;12.00
52799;DHT22;38667;42.872;74.622;2023-04-01T09:00:16;26.30;11.80
52799;DHT22;38667;42.872;74.622;2023-04-01T09:06:05;26.70;11.60
52799;DHT22;38667;42.872;74.622;2023-04-01T09:08:45;26.10;11.10
52799;DHT22;38667;42.872;74.622;2023-04-01T09:11:28;26.40;11.40
52799;DHT22;38667;42.872;74.622;2023-04-01T09:14:39;27.90;11.60
52799;DHT22;38667;42.872;74.622;2023-04-01T09:17:45;28.10;11.30
52799;DHT22;38667;42.872;74.622;2023-04-01T09:23:24;27.40;12.40
52799;DHT22;38667;42.872;74.622;2023-04-01T09:26:14;27.20;11.80
52799;DHT22;38667;42.872;74.622;2023-04-01T09:28:50;27.10;12.50
52799;DHT22;38667;42.872;74.622;2023-04-01T09:37:21;26.90;11.20
52799;DHT22;38667;42.872;74.622;2023-04-01T09:40:02;26.80;12.70
52799;DHT22;38667;42.872;74.622;2023-04-01T09:42:52;27.40;12.00
52799;DHT22;38667;42.872;74.622;2023-04-01T09:45:37;27.40;12.50
52799;DHT22;38667;42.872;74.622;2023-04-01T09:48:15;27.50;12.20
52799;DHT22;38667;42.872;74.622;2023-04-01T09:50:51;27.50;12.80
52799;DHT22;38667;42.872;74.622;2023-04-01T09:53:33;26.50;13.30
52799;DHT22;38667;42.872;74.622;2023-04-01T09:56:19;25.20;14.20
52799;DHT22;38667;42.872;74.622;2023-04-01T10:02:06;23.10;14.90
52799;DHT22;38667;42.872;74.622;2023-04-01T10:08:16;21.20;15.70
52799;DHT22;38667;42.872;74.622;2023-04-01T10:11:05;20.80;16.80
52799;DHT22;38667;42.872;74.622;2023-04-01T10:14:03;20.40;16.20
52799;DHT22;38667;42.872;74.622;2023-04-01T10:19:46;19.60;16.40
52799;DHT22;38667;42.872;74.622;2023-04-01T10:22:41;19.40;16.30
52799;DHT22;38667;42.872;74.622;2023-04-01T10:25:34;19.50;16.70
52799;DHT22;38667;42.872;74.622;2023-04-01T10:28:28;19.70;16.50
52799;DHT22;38667;42.872;74.622;2023-04-01T10:37:02;20.70;16.90
52799;DHT22;38667;42.872;74.622;2023-04-01T10:39:46;20.90;16.60
52799;DHT22;38667;42.872;74.622;2023-04-01T10:42:41;20.20;16.90
52799;DHT22;38667;42.872;74.622;2023-04-01T10:51:12;19.20;17.60
52799;DHT22;38667;42.872;74.622;2023-04-01T10:53:55;19.10;18.50
52799;DHT22;38667;42.872;74.622;2023-04-01T10:56:40;19.00;18.80
52799;DHT22;38667;42.872;74.622;2023-04-01T10:59:49;18.90;18.00
52799;DHT22;38667;42.872;74.622;2023-04-01T11:05:52;18.40;17.80
52799;DHT22;38667;42.872;74.622;2023-04-01T11:13:10;18.00;17.70
52799;DHT22;38667;42.872;74.622;2023-04-01T11:19:05;17.80;18.60
52799;DHT22;38667;42.872;74.622;2023-04-01T11:25:08;17.60;17.80
52799;DHT22;38667;42.872;74.622;2023-04-01T11:28:01;17.40;17.90
52799;DHT22;38667;42.872;74.622;2023-04-01T11:30:49;17.40;19.00
52799;DHT22;38667;42.872;74.622;2023-04-01T11:33:24;17.50;17.60
52799;DHT22;38667;42.872;74.622;2023-04-01T11:36:02;17.30;17.60
52799;DHT22;38667;42.872;74.622;2023-04-01T11:41:40;17.20;19.00
52799;DHT22;38667;42.872;74.622;2023-04-01T11:44:16;17.30;18.40
52799;DHT22;38667;42.872;74.622;2023-04-01T11:46:52;17.30;18.50
52799;DHT22;38667;42.872;74.622;2023-04-01T11:49:42;17.20;18.60
52799;DHT22;38667;42.872;74.622;2023-04-01T11:52:23;17.00;18.80
52799;DHT22;38667;42.872;74.622;2023-04-01T11:55:10;17.10;19.10
52799;DHT22;38667;42.872;74.622;2023-04-01T12:03:43;17.00;18.10
52799;DHT22;38667;42.872;74.622;2023-04-01T12:06:19;16.70;18.60
52799;DHT22;38667;42.872;74.622;2023-04-01T12:08:53;16.50;19.10
52799;DHT22;38667;42.872;74.622;2023-04-01T12:11:27;16.40;18.50
52799;DHT22;38667;42.872;74.622;2023-04-01T12:14:01;16.30;18.70
52799;DHT22;38667;42.872;74.622;2023-04-01T12:16:47;16.20;19.40
52799;DHT22;38667;42.872;74.622;2023-04-01T12:19:26;16.10;19.00
52799;DHT22;38667;42.872;74.622;2023-04-01T12:22:12;16.10;19.20
52799;DHT22;38667;42.872;74.622;2023-04-01T12:24:47;16.00;19.20
52799;DHT22;38667;42.872;74.622;2023-04-01T12:27:31;15.90;19.00
52799;DHT22;38667;42.872;74.622;2023-04-01T12:30:29;15.90;20.00
52799;DHT22;38667;42.872;74.622;2023-04-01T12:33:13;15.80;19.10
52799;DHT22;38667;42.872;74.622;2023-04-01T12:35:53;15.70;18.90
52799;DHT22;38667;42.872;74.622;2023-04-01T12:38:31;15.50;19.90
52799;DHT22;38667;42.872;74.622;2023-04-01T12:41:09;15.40;20.20
52799;DHT22;38667;42.872;74.622;2023-04-01T12:50:20;15.10;20.40
52799;DHT22;38667;42.872;74.622;2023-04-01T12:53:00;15.00;20.10
52799;DHT22;38667;42.872;74.622;2023-04-01T12:55:38;14.90;20.00
52799;DHT22;38667;42.872;74.622;2023-04-01T12:58:44;14.80;19.90
52799;DHT22;38667;42.872;74.622;2023-04-01T13:01:30;14.70;20.70
52799;DHT22;38667;42.872;74.622;2023-04-01T13:10:09;14.20;20.20
52799;DHT22;38667;42.872;74.622;2023-04-01T13:13:11;14.00;20.60
52799;DHT22;38667;42.872;74.622;2023-04-01T13:15:44;14.00;21.80
52799;DHT22;38667;42.872;74.622;2023-04-01T13:18:24;13.80;22.00
52799;DHT22;38667;42.872;74.622;2023-04-01T13:21:02;13.60;22.00
52799;DHT22;38667;42.872;74.622;2023-04-01T13:23:41;13.40;21.90
52799;DHT22;38667;42.872;74.622;2023-04-01T13:26:17;13.30;22.50
52799;DHT22;38667;42.872;74.622;2023-04-01T13:28:50;13.30;22.50
52799;DHT22;38667;42.872;74.622;2023-04-01T13:31:35;13.20;22.30
52799;DHT22;38667;42.872;74.622;2023-04-01T13:34:14;13.10;23.40
52799;DHT22;38667;42.872;74.622;2023-04-01T13:36:52;13.10;23.20
52799;DHT22;38667;42.872;74.622;2023-04-01T13:39:36;12.90;22.70
52799;DHT22;38667;42.872;74.622;2023-04-01T13:42:15;12.70;22.90
52799;DHT22;38667;42.872;74.622;2023-04-01T13:44:48;12.40;23.70
52799;DHT22;38667;42.872;74.622;2023-04-01T13:56:15;12.10;24.80
52799;DHT22;38667;42.872;74.622;2023-04-01T13:58:59;11.90;25.40
52799;DHT22;38667;42.872;74.622;2023-04-01T14:01:35;11.70;25.80
52799;DHT22;38667;42.872;74.622;2023-04-01T14:04:19;11.50;25.80
52799;DHT22;38667;42.872;74.622;2023-04-01T14:06:57;11.40;25.80
52799;DHT22;38667;42.872;74.622;2023-04-01T14:12:29;11.20;26.80
52799;DHT22;38667;42.872;74.622;2023-04-01T14:15:14;11.00;26.60
52799;DHT22;38667;42.872;74.622;2023-04-01T14:18:01;10.90;26.70
52799;DHT22;38667;42.872;74.622;2023-04-01T14:20:37;10.90;27.00
52799;DHT22;38667;42.872;74.622;2023-04-01T14:23:20;10.80;26.80
52799;DHT22;38667;42.872;74.622;2023-04-01T14:29:11;10.60;27.10
52799;DHT22;38667;42.872;74.622;2023-04-01T14:31:51;10.50;27.20
52799;DHT22;38667;42.872;74.622;2023-04-01T14:34:29;10.40;27.60
52799;DHT22;38667;42.872;74.622;2023-04-01T14:37:14;10.40;27.40
52799;DHT22;38667;42.872;74.622;2023-04-01T14:40:20;10.40;27.70
52799;DHT22;38667;42.872;74.622;2023-04-01T14:43:10;10.30;27.90
52799;DHT22;38667;42.872;74.622;2023-04-01T14:45:51;10.30;27.50
52799;DHT22;38667;42.872;74.622;2023-04-01T14:48:28;10.20;27.80
52799;DHT22;38667;42.872;74.622;2023-04-01T14:51:03;10.20;28.10
52799;DHT22;38667;42.872;74.622;2023-04-01T14:53:36;10.10;27.90
52799;DHT22;38667;42.872;74.622;2023-04-01T14:56:03;10.10;27.80
52799;DHT22;38667;42.872;74.622;2023-04-01T14:58:42;10.00;27.80
52799;DHT22;38667;42.872;74.622;2023-04-01T15:01:18;10.10;28.00
52799;DHT22;38667;42.872;74.622;2023-04-01T15:03:51;10.10;27.90
52799;DHT22;38667;42.872;74.622;2023-04-01T15:06:58;10.10;27.40
52799;DHT22;38667;42.872;74.622;2023-04-01T15:09:34;10.00;27.40
52799;DHT22;38667;42.872;74.622;2023-04-01T15:12:41;10.00;27.50
52799;DHT22;38667;42.872;74.622;2023-04-01T15:15:23;10.00;27.30
52799;DHT22;38667;42.872;74.622;2023-04-01T15:18:02;10.00;27.40
52799;DHT22;38667;42.872;74.622;2023-04-01T15:23:47;10.00;27.30
52799;DHT22;38667;42.872;74.622;2023-04-01T15:26:34;10.00;26.50
52799;DHT22;38667;42.872;74.622;2023-04-01T15:29:34;9.90;27.00
52799;DHT22;38667;42.872;74.622;2023-04-01T15:32:14;9.90;27.50
52799;DHT22;38667;42.872;74.622;2023-04-01T15:34:45;10.00;26.50
52799;DHT22;38667;42.872;74.622;2023-04-01T15:37:21;10.00;26.40
52799;DHT22;38667;42.872;74.622;2023-04-01T15:40:00;9.90;26.20
52799;DHT22;38667;42.872;74.622;2023-04-01T15:42:57;9.90;26.40
52799;DHT22;38667;42.872;74.622;2023-04-01T15:45:39;9.90;26.70
52799;DHT22;38667;42.872;74.622;2023-04-01T15:48:28;9.90;26.50
52799;DHT22;38667;42.872;74.622;2023-04-01T15:51:11;9.90;26.90
52799;DHT22;38667;42.872;74.622;2023-04-01T15:54:06;9.80;26.90
52799;DHT22;38667;42.872;74.622;2023-04-01T15:56:53;9.80;26.90
52799;DHT22;38667;42.872;74.622;2023-04-01T15:59:44;9.80;27.00
52799;DHT22;38667;42.872;74.622;2023-04-01T16:02:23;9.70;26.80
52799;DHT22;38667;42.872;74.622;2023-04-01T16:04:58;9.70;27.40
52799;DHT22;38667;42.872;74.622;2023-04-01T16:07:46;9.60;27.60
52799;DHT22;38667;42.872;74.622;2023-04-01T16:10:25;9.60;27.80
52799;DHT22;38667;42.872;74.622;2023-04-01T16:13:04;9.60;28.20
52799;DHT22;38667;42.872;74.622;2023-04-01T16:15:42;9.60;28.80
52799;DHT22;38667;42.872;74.622;2023-04-01T16:18:36;9.50;28.40
52799;DHT22;38667;42.872;74.622;2023-04-01T16:21:09;9.40;28.80
52799;DHT22;38667;42.872;74.622;2023-04-01T16:23:39;9.50;28.80
52799;DHT22;38667;42.872;74.622;2023-04-01T16:26:15;9.40;28.80
52799;DHT22;38667;42.872;74.622;2023-04-01T16:28:54;9.40;29.30
52799;DHT22;38667;42.872;74.622;2023-04-01T16:31:32;9.30;29.60
52799;DHT22;38667;42.872;74.622;2023-04-01T16:34:07;9.20;29.70
52799;DHT22;38667;42.872;74.622;2023-04-01T16:36:36;9.10;29.40
52799;DHT22;38667;42.872;74.622;2023-04-01T16:39:27;9.00;29.40
52799;DHT22;38667;42.872;74.622;2023-04-01T16:42:26;9.00;29.90
52799;DHT22;38667;42.872;74.622;2023-04-01T16:45:01;9.00;30.10
52799;DHT22;38667;42.872;74.622;2023-04-01T16:47:30;9.00;30.10
52799;DHT22;38667;42.872;74.622;2023-04-01T16:50:06;9.00;30.00
52799;DHT22;38667;42.872;74.622;2023-04-01T16:52:53;9.10;30.10
52799;DHT22;38667;42.872;74.622;2023-04-01T16:55:21;9.00;30.10
52799;DHT22;38667;42.872;74.622;2023-04-01T16:57:51;9.10;30.30
52799;DHT22;38667;42.872;74.622;2023-04-01T17:00:25;9.10;30.20
52799;DHT22;38667;42.872;74.622;2023-04-01T17:03:03;9.10;30.40
52799;DHT22;38667;42.872;74.622;2023-04-01T17:05:42;9.10;29.90
52799;DHT22;38667;42.872;74.622;2023-04-01T17:08:18;9.10;30.40
52799;DHT22;38667;42.872;74.622;2023-04-01T17:10:51;9.10;30.40
52799;DHT22;38667;42.872;74.622;2023-04-01T17:16:26;9.10;30.30
52799;DHT22;38667;42.872;74.622;2023-04-01T17:19:01;9.10;30.70
52799;DHT22;38667;42.872;74.622;2023-04-01T17:21:47;9.10;31.10
52799;DHT22;38667;42.872;74.622;2023-04-01T17:24:27;9.20;31.20
52799;DHT22;38667;42.872;74.622;2023-04-01T17:27:01;9.20;30.90
52799;DHT22;38667;42.872;74.622;2023-04-01T17:29:37;9.20;30.50
52799;DHT22;38667;42.872;74.622;2023-04-01T17:32:09;9.20;30.80
52799;DHT22;38667;42.872;74.622;2023-04-01T17:34:46;9.20;30.70
52799;DHT22;38667;42.872;74.622;2023-04-01T17:37:38;9.30;31.00
52799;DHT22;38667;42.872;74.622;2023-04-01T17:40:21;9.30;30.90
52799;DHT22;38667;42.872;74.622;2023-04-01T17:42:56;9.30;30.90
52799;DHT22;38667;42.872;74.622;2023-04-01T17:45:28;9.30;30.90
52799;DHT22;38667;42.872;74.622;2023-04-01T17:48:03;9.30;31.90
52799;DHT22;38667;42.872;74.622;2023-04-01T17:50:48;9.40;32.20
52799;DHT22;38667;42.872;74.622;2023-04-01T17:53:28;9.30;32.10
52799;DHT22;38667;42.872;74.622;2023-04-01T17:56:08;9.30;32.10
52799;DHT22;38667;42.872;74.622;2023-04-01T17:58:44;9.20;32.30